Terminal Aerodrome Forecast
Issued by NWS Corpus Christi, TX

Home | Current Version | Previous Version | Text Only | Print | Product List | Glossary On
Versions: 1 2 3 4 5 6 7 8 9 10 11 12
111
FTUS44 KCRP 261728
TAFVCT
TAF
KVCT 261728Z 2618/2718 18003KT P6SM VCTS BKN020CB BKN050
      TEMPO 2618/2620 TSRA OVC020CB
     FM270300 16005KT P6SM FEW030 BKN250
     FM271000 VRB04KT P6SM VCSH SCT020 BKN250
     FM271300 19005KT P6SM VCTS SCT020CB BKN250=

USA.gov is the U.S. government's official web portal to all federal, state and local government web resources and services.